sensor_id;sensor_type;location;lat;lon;timestamp;P1;durP1;ratioP1;P2;durP2;ratioP2
51943;SDS011;37969;53.132;6.370;2023-07-28T00:01:31;41.00;;;19.55;;
51943;SDS011;37969;53.132;6.370;2023-07-28T00:03:57;42.88;;;20.08;;
51943;SDS011;37969;53.132;6.370;2023-07-28T00:06:23;43.75;;;20.83;;
51943;SDS011;37969;53.132;6.370;2023-07-28T00:08:49;38.55;;;20.00;;
51943;SDS011;37969;53.132;6.370;2023-07-28T00:11:16;44.92;;;20.38;;
51943;SDS011;37969;53.132;6.370;2023-07-28T00:13:42;48.80;;;19.67;;
51943;SDS011;37969;53.132;6.370;2023-07-28T00:16:09;47.58;;;22.17;;
51943;SDS011;37969;53.132;6.370;2023-07-28T00:18:35;46.10;;;20.83;;
51943;SDS011;37969;53.132;6.370;2023-07-28T00:21:04;50.05;;;22.10;;
51943;SDS011;37969;53.132;6.370;2023-07-28T00:23:30;56.05;;;21.92;;
51943;SDS011;37969;53.132;6.370;2023-07-28T00:25:57;49.33;;;22.23;;
51943;SDS011;37969;53.132;6.370;2023-07-28T00:28:23;51.45;;;21.85;;
51943;SDS011;37969;53.132;6.370;2023-07-28T00:30:49;49.00;;;22.40;;
51943;SDS011;37969;53.132;6.370;2023-07-28T00:33:16;53.85;;;22.67;;
51943;SDS011;37969;53.132;6.370;2023-07-28T00:35:42;50.00;;;22.73;;
51943;SDS011;37969;53.132;6.370;2023-07-28T00:38:08;55.80;;;23.13;;
51943;SDS011;37969;53.132;6.370;2023-07-28T00:40:35;46.67;;;24.17;;
51943;SDS011;37969;53.132;6.370;2023-07-28T00:43:01;56.50;;;25.58;;
51943;SDS011;37969;53.132;6.370;2023-07-28T00:45:28;58.78;;;25.50;;
51943;SDS011;37969;53.132;6.370;2023-07-28T00:47:55;66.53;;;26.27;;
51943;SDS011;37969;53.132;6.370;2023-07-28T00:50:50;60.78;;;25.55;;
51943;SDS011;37969;53.132;6.370;2023-07-28T00:53:17;61.45;;;27.52;;
51943;SDS011;37969;53.132;6.370;2023-07-28T00:55:45;66.57;;;26.02;;
51943;SDS011;37969;53.132;6.370;2023-07-28T00:58:11;71.97;;;29.55;;
51943;SDS011;37969;53.132;6.370;2023-07-28T01:00:37;67.53;;;28.17;;
51943;SDS011;37969;53.132;6.370;2023-07-28T01:03:03;78.68;;;29.30;;
51943;SDS011;37969;53.132;6.370;2023-07-28T01:05:39;74.13;;;28.88;;
51943;SDS011;37969;53.132;6.370;2023-07-28T01:08:11;66.47;;;26.90;;
51943;SDS011;37969;53.132;6.370;2023-07-28T01:10:42;75.63;;;29.88;;
51943;SDS011;37969;53.132;6.370;2023-07-28T01:13:08;77.85;;;31.10;;
51943;SDS011;37969;53.132;6.370;2023-07-28T01:15:34;80.63;;;30.35;;
51943;SDS011;37969;53.132;6.370;2023-07-28T01:18:00;82.35;;;30.88;;
51943;SDS011;37969;53.132;6.370;2023-07-28T01:20:29;70.80;;;29.95;;
51943;SDS011;37969;53.132;6.370;2023-07-28T01:23:05;86.97;;;33.07;;
51943;SDS011;37969;53.132;6.370;2023-07-28T01:25:35;77.38;;;33.10;;
51943;SDS011;37969;53.132;6.370;2023-07-28T01:28:02;81.72;;;32.22;;
51943;SDS011;37969;53.132;6.370;2023-07-28T01:30:29;74.22;;;32.15;;
51943;SDS011;37969;53.132;6.370;2023-07-28T01:32:55;79.25;;;32.88;;
51943;SDS011;37969;53.132;6.370;2023-07-28T01:35:22;85.13;;;33.00;;
51943;SDS011;37969;53.132;6.370;2023-07-28T01:37:48;68.55;;;30.17;;
51943;SDS011;37969;53.132;6.370;2023-07-28T01:40:17;80.82;;;32.67;;
51943;SDS011;37969;53.132;6.370;2023-07-28T01:42:43;80.50;;;32.35;;
51943;SDS011;37969;53.132;6.370;2023-07-28T01:45:09;78.97;;;31.38;;
51943;SDS011;37969;53.132;6.370;2023-07-28T01:47:36;74.43;;;31.92;;
51943;SDS011;37969;53.132;6.370;2023-07-28T01:50:02;68.40;;;30.48;;
51943;SDS011;37969;53.132;6.370;2023-07-28T01:52:28;80.05;;;31.50;;
51943;SDS011;37969;53.132;6.370;2023-07-28T01:54:54;68.82;;;31.23;;
51943;SDS011;37969;53.132;6.370;2023-07-28T01:57:20;74.63;;;29.33;;
51943;SDS011;37969;53.132;6.370;2023-07-28T01:59:47;71.28;;;29.58;;
51943;SDS011;37969;53.132;6.370;2023-07-28T02:02:13;73.60;;;28.92;;
51943;SDS011;37969;53.132;6.370;2023-07-28T02:04:39;71.70;;;29.13;;
51943;SDS011;37969;53.132;6.370;2023-07-28T02:07:05;65.78;;;26.80;;
51943;SDS011;37969;53.132;6.370;2023-07-28T02:09:31;61.00;;;26.38;;
51943;SDS011;37969;53.132;6.370;2023-07-28T02:11:57;60.45;;;26.55;;
51943;SDS011;37969;53.132;6.370;2023-07-28T02:14:24;67.22;;;27.52;;
51943;SDS011;37969;53.132;6.370;2023-07-28T02:16:50;59.85;;;26.33;;
51943;SDS011;37969;53.132;6.370;2023-07-28T02:19:16;62.47;;;26.92;;
51943;SDS011;37969;53.132;6.370;2023-07-28T02:21:42;63.58;;;25.25;;
51943;SDS011;37969;53.132;6.370;2023-07-28T02:24:08;64.85;;;25.65;;
51943;SDS011;37969;53.132;6.370;2023-07-28T02:26:34;54.22;;;24.63;;
51943;SDS011;37969;53.132;6.370;2023-07-28T02:29:00;60.60;;;24.73;;
51943;SDS011;37969;53.132;6.370;2023-07-28T02:31:27;73.80;;;26.67;;
51943;SDS011;37969;53.132;6.370;2023-07-28T02:33:53;56.53;;;23.35;;
51943;SDS011;37969;53.132;6.370;2023-07-28T02:36:19;60.85;;;24.52;;
51943;SDS011;37969;53.132;6.370;2023-07-28T02:38:45;52.67;;;23.25;;
51943;SDS011;37969;53.132;6.370;2023-07-28T02:41:12;53.20;;;22.98;;
51943;SDS011;37969;53.132;6.370;2023-07-28T02:43:38;56.55;;;21.85;;
51943;SDS011;37969;53.132;6.370;2023-07-28T02:46:04;67.45;;;22.02;;
51943;SDS011;37969;53.132;6.370;2023-07-28T02:48:30;62.53;;;22.80;;
51943;SDS011;37969;53.132;6.370;2023-07-28T02:50:56;54.92;;;22.58;;
51943;SDS011;37969;53.132;6.370;2023-07-28T02:53:22;60.10;;;22.55;;
51943;SDS011;37969;53.132;6.370;2023-07-28T02:55:49;66.63;;;21.15;;
51943;SDS011;37969;53.132;6.370;2023-07-28T02:58:15;66.13;;;21.45;;
51943;SDS011;37969;53.132;6.370;2023-07-28T03:00:42;58.88;;;19.77;;
51943;SDS011;37969;53.132;6.370;2023-07-28T03:03:09;59.40;;;20.05;;
51943;SDS011;37969;53.132;6.370;2023-07-28T03:05:36;59.13;;;19.15;;
51943;SDS011;37969;53.132;6.370;2023-07-28T03:08:03;41.92;;;17.65;;
51943;SDS011;37969;53.132;6.370;2023-07-28T03:10:29;51.85;;;18.05;;
51943;SDS011;37969;53.132;6.370;2023-07-28T03:12:56;54.05;;;17.55;;
51943;SDS011;37969;53.132;6.370;2023-07-28T03:15:22;46.67;;;18.55;;
51943;SDS011;37969;53.132;6.370;2023-07-28T03:17:49;45.22;;;18.52;;
51943;SDS011;37969;53.132;6.370;2023-07-28T03:20:15;52.03;;;17.90;;
51943;SDS011;37969;53.132;6.370;2023-07-28T03:22:41;54.58;;;17.83;;
51943;SDS011;37969;53.132;6.370;2023-07-28T03:25:08;46.92;;;16.85;;
51943;SDS011;37969;53.132;6.370;2023-07-28T03:27:34;44.95;;;17.13;;
51943;SDS011;37969;53.132;6.370;2023-07-28T03:30:00;49.15;;;17.05;;
51943;SDS011;37969;53.132;6.370;2023-07-28T03:32:26;45.55;;;17.40;;
51943;SDS011;37969;53.132;6.370;2023-07-28T03:34:53;42.38;;;16.20;;
51943;SDS011;37969;53.132;6.370;2023-07-28T03:37:19;48.75;;;16.20;;
51943;SDS011;37969;53.132;6.370;2023-07-28T03:39:45;44.20;;;17.10;;
51943;SDS011;37969;53.132;6.370;2023-07-28T03:42:11;41.55;;;16.45;;
51943;SDS011;37969;53.132;6.370;2023-07-28T03:44:37;47.63;;;16.75;;
51943;SDS011;37969;53.132;6.370;2023-07-28T03:47:05;47.03;;;16.27;;
51943;SDS011;37969;53.132;6.370;2023-07-28T03:49:31;42.53;;;16.25;;
51943;SDS011;37969;53.132;6.370;2023-07-28T03:51:57;40.85;;;16.05;;
51943;SDS011;37969;53.132;6.370;2023-07-28T03:54:23;46.50;;;15.82;;
51943;SDS011;37969;53.132;6.370;2023-07-28T03:56:49;43.55;;;15.85;;
51943;SDS011;37969;53.132;6.370;2023-07-28T03:59:16;38.38;;;16.40;;
51943;SDS011;37969;53.132;6.370;2023-07-28T04:01:42;36.40;;;15.60;;
51943;SDS011;37969;53.132;6.370;2023-07-28T04:04:08;38.72;;;15.43;;
51943;SDS011;37969;53.132;6.370;2023-07-28T04:06:45;39.50;;;15.75;;
51943;SDS011;37969;53.132;6.370;2023-07-28T04:09:13;39.17;;;15.50;;
51943;SDS011;37969;53.132;6.370;2023-07-28T04:11:39;47.42;;;15.88;;
51943;SDS011;37969;53.132;6.370;2023-07-28T04:14:05;43.17;;;15.00;;
51943;SDS011;37969;53.132;6.370;2023-07-28T04:16:32;38.30;;;14.88;;
51943;SDS011;37969;53.132;6.370;2023-07-28T04:18:59;41.90;;;14.95;;
51943;SDS011;37969;53.132;6.370;2023-07-28T04:21:25;40.13;;;15.20;;
51943;SDS011;37969;53.132;6.370;2023-07-28T04:23:51;40.22;;;14.48;;
51943;SDS011;37969;53.132;6.370;2023-07-28T04:26:18;40.05;;;15.68;;
51943;SDS011;37969;53.132;6.370;2023-07-28T04:28:44;33.63;;;14.57;;
51943;SDS011;37969;53.132;6.370;2023-07-28T04:31:11;38.83;;;14.45;;
51943;SDS011;37969;53.132;6.370;2023-07-28T04:33:38;36.85;;;14.60;;
51943;SDS011;37969;53.132;6.370;2023-07-28T04:36:04;36.28;;;13.75;;
51943;SDS011;37969;53.132;6.370;2023-07-28T04:38:30;44.05;;;15.75;;
51943;SDS011;37969;53.132;6.370;2023-07-28T04:40:56;35.97;;;14.70;;
51943;SDS011;37969;53.132;6.370;2023-07-28T04:43:22;34.00;;;14.18;;
51943;SDS011;37969;53.132;6.370;2023-07-28T04:45:49;38.08;;;14.80;;
51943;SDS011;37969;53.132;6.370;2023-07-28T04:48:15;40.28;;;14.65;;
51943;SDS011;37969;53.132;6.370;2023-07-28T04:50:41;30.70;;;13.13;;
51943;SDS011;37969;53.132;6.370;2023-07-28T04:53:07;32.88;;;14.68;;
51943;SDS011;37969;53.132;6.370;2023-07-28T04:55:34;32.03;;;14.05;;
51943;SDS011;37969;53.132;6.370;2023-07-28T04:58:00;33.22;;;14.98;;
51943;SDS011;37969;53.132;6.370;2023-07-28T05:00:26;31.42;;;13.60;;
51943;SDS011;37969;53.132;6.370;2023-07-28T05:02:52;32.95;;;14.02;;
51943;SDS011;37969;53.132;6.370;2023-07-28T05:05:18;26.17;;;13.43;;
51943;SDS011;37969;53.132;6.370;2023-07-28T05:07:44;27.40;;;13.48;;
51943;SDS011;37969;53.132;6.370;2023-07-28T05:10:11;42.50;;;14.68;;
51943;SDS011;37969;53.132;6.370;2023-07-28T05:12:37;45.05;;;15.50;;
51943;SDS011;37969;53.132;6.370;2023-07-28T05:15:04;32.75;;;14.38;;
51943;SDS011;37969;53.132;6.370;2023-07-28T05:17:30;35.80;;;14.07;;
51943;SDS011;37969;53.132;6.370;2023-07-28T05:19:56;26.00;;;13.57;;
51943;SDS011;37969;53.132;6.370;2023-07-28T05:22:22;30.98;;;14.60;;
51943;SDS011;37969;53.132;6.370;2023-07-28T05:24:48;29.02;;;14.00;;
51943;SDS011;37969;53.132;6.370;2023-07-28T05:27:15;25.55;;;13.68;;
51943;SDS011;37969;53.132;6.370;2023-07-28T05:29:41;32.35;;;14.05;;
51943;SDS011;37969;53.132;6.370;2023-07-28T05:32:07;30.30;;;13.98;;
51943;SDS011;37969;53.132;6.370;2023-07-28T05:34:33;33.17;;;14.68;;
51943;SDS011;37969;53.132;6.370;2023-07-28T05:36:59;28.13;;;13.50;;
51943;SDS011;37969;53.132;6.370;2023-07-28T05:39:26;25.38;;;11.80;;
51943;SDS011;37969;53.132;6.370;2023-07-28T05:41:52;26.88;;;12.52;;
51943;SDS011;37969;53.132;6.370;2023-07-28T05:44:18;22.85;;;12.30;;
51943;SDS011;37969;53.132;6.370;2023-07-28T05:46:44;28.95;;;12.90;;
51943;SDS011;37969;53.132;6.370;2023-07-28T05:49:13;22.30;;;11.52;;
51943;SDS011;37969;53.132;6.370;2023-07-28T05:51:39;20.88;;;11.60;;
51943;SDS011;37969;53.132;6.370;2023-07-28T05:54:05;21.88;;;11.73;;
51943;SDS011;37969;53.132;6.370;2023-07-28T05:56:32;14.40;;;10.85;;
51943;SDS011;37969;53.132;6.370;2023-07-28T05:58:58;18.70;;;11.52;;
51943;SDS011;37969;53.132;6.370;2023-07-28T06:01:24;20.50;;;12.48;;
51943;SDS011;37969;53.132;6.370;2023-07-28T06:03:52;20.70;;;12.75;;
51943;SDS011;37969;53.132;6.370;2023-07-28T06:06:23;20.85;;;12.75;;
51943;SDS011;37969;53.132;6.370;2023-07-28T06:08:50;19.48;;;13.35;;
51943;SDS011;37969;53.132;6.370;2023-07-28T06:11:16;17.23;;;13.10;;
51943;SDS011;37969;53.132;6.370;2023-07-28T06:13:42;21.42;;;13.45;;
51943;SDS011;37969;53.132;6.370;2023-07-28T06:16:09;19.63;;;12.50;;
51943;SDS011;37969;53.132;6.370;2023-07-28T06:18:35;20.23;;;12.82;;
51943;SDS011;37969;53.132;6.370;2023-07-28T06:21:01;22.23;;;13.77;;
51943;SDS011;37969;53.132;6.370;2023-07-28T06:23:27;17.45;;;12.70;;
51943;SDS011;37969;53.132;6.370;2023-07-28T06:25:53;19.20;;;13.98;;
51943;SDS011;37969;53.132;6.370;2023-07-28T06:28:20;17.42;;;13.90;;
51943;SDS011;37969;53.132;6.370;2023-07-28T06:30:47;19.85;;;14.00;;
51943;SDS011;37969;53.132;6.370;2023-07-28T06:33:13;19.88;;;14.75;;
51943;SDS011;37969;53.132;6.370;2023-07-28T06:35:39;18.05;;;15.18;;
51943;SDS011;37969;53.132;6.370;2023-07-28T06:38:05;18.35;;;13.88;;
51943;SDS011;37969;53.132;6.370;2023-07-28T06:40:32;15.20;;;12.65;;
51943;SDS011;37969;53.132;6.370;2023-07-28T06:42:58;14.13;;;12.55;;
51943;SDS011;37969;53.132;6.370;2023-07-28T06:45:24;13.57;;;12.15;;
51943;SDS011;37969;53.132;6.370;2023-07-28T06:47:50;17.08;;;11.95;;
51943;SDS011;37969;53.132;6.370;2023-07-28T06:50:17;13.50;;;12.25;;
51943;SDS011;37969;53.132;6.370;2023-07-28T06:52:43;13.23;;;11.93;;
51943;SDS011;37969;53.132;6.370;2023-07-28T06:55:09;13.60;;;12.15;;
51943;SDS011;37969;53.132;6.370;2023-07-28T06:57:35;13.40;;;12.10;;
51943;SDS011;37969;53.132;6.370;2023-07-28T07:00:01;16.67;;;12.80;;
51943;SDS011;37969;53.132;6.370;2023-07-28T07:02:28;16.50;;;12.35;;
51943;SDS011;37969;53.132;6.370;2023-07-28T07:04:54;17.10;;;12.98;;
51943;SDS011;37969;53.132;6.370;2023-07-28T07:07:21;16.65;;;12.93;;
51943;SDS011;37969;53.132;6.370;2023-07-28T07:09:47;16.25;;;13.15;;
51943;SDS011;37969;53.132;6.370;2023-07-28T07:12:13;14.95;;;13.35;;
51943;SDS011;37969;53.132;6.370;2023-07-28T07:14:40;14.43;;;12.73;;
51943;SDS011;37969;53.132;6.370;2023-07-28T07:17:07;13.05;;;11.40;;
51943;SDS011;37969;53.132;6.370;2023-07-28T07:19:33;12.50;;;11.05;;
51943;SDS011;37969;53.132;6.370;2023-07-28T07:21:59;12.75;;;11.40;;
51943;SDS011;37969;53.132;6.370;2023-07-28T07:24:27;13.82;;;12.20;;
51943;SDS011;37969;53.132;6.370;2023-07-28T07:26:54;13.63;;;12.38;;
51943;SDS011;37969;53.132;6.370;2023-07-28T07:29:20;14.45;;;12.45;;
51943;SDS011;37969;53.132;6.370;2023-07-28T07:31:46;16.20;;;11.25;;
51943;SDS011;37969;53.132;6.370;2023-07-28T07:34:12;15.52;;;12.30;;
51943;SDS011;37969;53.132;6.370;2023-07-28T07:36:38;15.23;;;12.07;;
51943;SDS011;37969;53.132;6.370;2023-07-28T07:39:05;13.10;;;11.80;;
51943;SDS011;37969;53.132;6.370;2023-07-28T07:41:31;15.07;;;11.90;;
51943;SDS011;37969;53.132;6.370;2023-07-28T07:43:57;12.98;;;11.55;;
51943;SDS011;37969;53.132;6.370;2023-07-28T07:46:23;14.15;;;12.20;;
51943;SDS011;37969;53.132;6.370;2023-07-28T07:48:49;13.05;;;11.65;;
51943;SDS011;37969;53.132;6.370;2023-07-28T07:51:16;13.68;;;11.32;;
51943;SDS011;37969;53.132;6.370;2023-07-28T07:53:42;14.15;;;11.43;;
51943;SDS011;37969;53.132;6.370;2023-07-28T07:56:09;15.75;;;11.35;;
51943;SDS011;37969;53.132;6.370;2023-07-28T07:58:38;16.83;;;11.80;;
51943;SDS011;37969;53.132;6.370;2023-07-28T08:01:04;12.38;;;11.05;;
51943;SDS011;37969;53.132;6.370;2023-07-28T08:03:31;13.90;;;10.80;;
51943;SDS011;37969;53.132;6.370;2023-07-28T08:05:57;11.18;;;9.70;;
51943;SDS011;37969;53.132;6.370;2023-07-28T08:08:23;13.32;;;9.48;;
51943;SDS011;37969;53.132;6.370;2023-07-28T08:10:50;9.38;;;8.45;;
51943;SDS011;37969;53.132;6.370;2023-07-28T08:13:16;11.85;;;8.68;;
51943;SDS011;37969;53.132;6.370;2023-07-28T08:15:43;8.82;;;7.95;;
51943;SDS011;37969;53.132;6.370;2023-07-28T08:18:09;8.50;;;7.72;;
51943;SDS011;37969;53.132;6.370;2023-07-28T08:20:35;10.35;;;8.00;;
51943;SDS011;37969;53.132;6.370;2023-07-28T08:23:01;8.82;;;8.02;;
51943;SDS011;37969;53.132;6.370;2023-07-28T08:25:27;8.07;;;6.95;;
51943;SDS011;37969;53.132;6.370;2023-07-28T08:27:53;8.73;;;7.53;;
51943;SDS011;37969;53.132;6.370;2023-07-28T08:30:20;7.35;;;6.65;;
51943;SDS011;37969;53.132;6.370;2023-07-28T08:32:46;7.75;;;6.95;;
51943;SDS011;37969;53.132;6.370;2023-07-28T08:35:14;10.90;;;7.28;;
51943;SDS011;37969;53.132;6.370;2023-07-28T08:37:40;10.90;;;6.20;;
51943;SDS011;37969;53.132;6.370;2023-07-28T08:40:06;10.80;;;6.03;;
51943;SDS011;37969;53.132;6.370;2023-07-28T08:42:35;6.05;;;5.55;;
51943;SDS011;37969;53.132;6.370;2023-07-28T08:45:02;7.57;;;5.38;;
51943;SDS011;37969;53.132;6.370;2023-07-28T08:47:30;5.78;;;5.03;;
51943;SDS011;37969;53.132;6.370;2023-07-28T08:49:56;5.57;;;5.05;;
51943;SDS011;37969;53.132;6.370;2023-07-28T08:52:22;6.28;;;5.60;;
51943;SDS011;37969;53.132;6.370;2023-07-28T08:54:49;6.22;;;4.43;;
51943;SDS011;37969;53.132;6.370;2023-07-28T08:57:16;6.47;;;5.10;;
51943;SDS011;37969;53.132;6.370;2023-07-28T08:59:42;4.97;;;4.55;;
51943;SDS011;37969;53.132;6.370;2023-07-28T09:02:14;5.43;;;4.97;;
51943;SDS011;37969;53.132;6.370;2023-07-28T09:04:41;5.28;;;4.60;;
51943;SDS011;37969;53.132;6.370;2023-07-28T09:07:08;6.97;;;4.28;;
51943;SDS011;37969;53.132;6.370;2023-07-28T09:09:35;4.20;;;3.38;;
51943;SDS011;37969;53.132;6.370;2023-07-28T09:12:02;3.90;;;3.60;;
51943;SDS011;37969;53.132;6.370;2023-07-28T09:14:29;5.00;;;3.13;;
51943;SDS011;37969;53.132;6.370;2023-07-28T09:16:56;5.72;;;3.10;;
51943;SDS011;37969;53.132;6.370;2023-07-28T09:19:22;2.90;;;2.58;;
51943;SDS011;37969;53.132;6.370;2023-07-28T09:21:58;3.67;;;3.10;;
51943;SDS011;37969;53.132;6.370;2023-07-28T09:24:31;4.40;;;3.25;;
51943;SDS011;37969;53.132;6.370;2023-07-28T09:26:58;3.78;;;3.05;;
51943;SDS011;37969;53.132;6.370;2023-07-28T09:29:24;6.07;;;3.00;;
51943;SDS011;37969;53.132;6.370;2023-07-28T09:31:53;4.00;;;3.40;;
51943;SDS011;37969;53.132;6.370;2023-07-28T09:34:23;6.38;;;3.55;;
51943;SDS011;37969;53.132;6.370;2023-07-28T09:36:52;4.65;;;3.50;;
51943;SDS011;37969;53.132;6.370;2023-07-28T09:39:19;6.20;;;4.13;;
51943;SDS011;37969;53.132;6.370;2023-07-28T09:41:46;4.68;;;3.70;;
51943;SDS011;37969;53.132;6.370;2023-07-28T09:44:13;4.93;;;3.60;;
51943;SDS011;37969;53.132;6.370;2023-07-28T09:46:51;5.15;;;3.60;;
51943;SDS011;37969;53.132;6.370;2023-07-28T09:49:27;6.30;;;3.42;;
51943;SDS011;37969;53.132;6.370;2023-07-28T09:51:54;4.07;;;3.03;;
51943;SDS011;37969;53.132;6.370;2023-07-28T09:54:23;4.50;;;3.33;;
51943;SDS011;37969;53.132;6.370;2023-07-28T09:56:54;4.60;;;2.85;;
51943;SDS011;37969;53.132;6.370;2023-07-28T10:01:48;5.70;;;2.80;;
51943;SDS011;37969;53.132;6.370;2023-07-28T10:04:14;4.60;;;2.55;;
51943;SDS011;37969;53.132;6.370;2023-07-28T10:06:41;3.92;;;2.60;;
51943;SDS011;37969;53.132;6.370;2023-07-28T10:09:07;6.22;;;2.78;;
51943;SDS011;37969;53.132;6.370;2023-07-28T10:11:34;2.72;;;2.15;;
51943;SDS011;37969;53.132;6.370;2023-07-28T10:14:00;4.32;;;2.30;;
51943;SDS011;37969;53.132;6.370;2023-07-28T10:16:30;5.32;;;2.28;;
51943;SDS011;37969;53.132;6.370;2023-07-28T10:18:57;4.43;;;2.53;;
51943;SDS011;37969;53.132;6.370;2023-07-28T10:21:27;4.93;;;2.15;;
51943;SDS011;37969;53.132;6.370;2023-07-28T10:23:55;4.75;;;2.47;;
51943;SDS011;37969;53.132;6.370;2023-07-28T10:26:31;5.57;;;1.92;;
51943;SDS011;37969;53.132;6.370;2023-07-28T10:29:07;4.18;;;2.00;;
51943;SDS011;37969;53.132;6.370;2023-07-28T10:31:33;5.97;;;2.00;;
51943;SDS011;37969;53.132;6.370;2023-07-28T10:34:00;2.53;;;1.85;;
51943;SDS011;37969;53.132;6.370;2023-07-28T10:41:34;5.18;;;2.58;;
51943;SDS011;37969;53.132;6.370;2023-07-28T10:44:01;3.33;;;2.40;;
51943;SDS011;37969;53.132;6.370;2023-07-28T10:46:28;3.90;;;2.50;;
51943;SDS011;37969;53.132;6.370;2023-07-28T10:48:54;4.45;;;2.60;;
51943;SDS011;37969;53.132;6.370;2023-07-28T10:51:24;9.07;;;2.72;;
51943;SDS011;37969;53.132;6.370;2023-07-28T10:53:51;4.68;;;2.58;;
51943;SDS011;37969;53.132;6.370;2023-07-28T10:56:17;5.80;;;2.50;;
51943;SDS011;37969;53.132;6.370;2023-07-28T10:58:44;2.80;;;1.98;;
51943;SDS011;37969;53.132;6.370;2023-07-28T11:01:10;3.15;;;2.28;;
51943;SDS011;37969;53.132;6.370;2023-07-28T11:03:37;5.90;;;2.38;;
51943;SDS011;37969;53.132;6.370;2023-07-28T11:06:03;7.50;;;2.50;;
51943;SDS011;37969;53.132;6.370;2023-07-28T11:08:31;4.00;;;2.17;;
51943;SDS011;37969;53.132;6.370;2023-07-28T11:11:00;3.75;;;2.10;;
51943;SDS011;37969;53.132;6.370;2023-07-28T11:13:28;3.83;;;2.17;;
51943;SDS011;37969;53.132;6.370;2023-07-28T11:15:54;3.72;;;2.22;;
51943;SDS011;37969;53.132;6.370;2023-07-28T11:18:21;5.72;;;2.05;;
51943;SDS011;37969;53.132;6.370;2023-07-28T11:20:47;4.90;;;2.38;;
51943;SDS011;37969;53.132;6.370;2023-07-28T11:23:13;3.40;;;1.60;;
51943;SDS011;37969;53.132;6.370;2023-07-28T11:25:41;3.92;;;1.90;;
51943;SDS011;37969;53.132;6.370;2023-07-28T11:28:09;2.35;;;2.00;;
51943;SDS011;37969;53.132;6.370;2023-07-28T11:30:36;2.67;;;2.00;;
51943;SDS011;37969;53.132;6.370;2023-07-28T11:33:03;4.80;;;2.10;;
51943;SDS011;37969;53.132;6.370;2023-07-28T11:35:29;3.88;;;2.03;;
51943;SDS011;37969;53.132;6.370;2023-07-28T11:37:56;2.92;;;1.88;;
51943;SDS011;37969;53.132;6.370;2023-07-28T11:40:25;3.42;;;2.00;;
51943;SDS011;37969;53.132;6.370;2023-07-28T11:42:52;1.60;;;1.50;;
51943;SDS011;37969;53.132;6.370;2023-07-28T11:45:19;2.53;;;1.70;;
51943;SDS011;37969;53.132;6.370;2023-07-28T11:50:22;3.10;;;1.88;;
51943;SDS011;37969;53.132;6.370;2023-07-28T11:52:49;3.55;;;1.88;;
51943;SDS011;37969;53.132;6.370;2023-07-28T11:55:15;3.00;;;2.08;;
51943;SDS011;37969;53.132;6.370;2023-07-28T11:57:42;1.67;;;1.58;;
51943;SDS011;37969;53.132;6.370;2023-07-28T12:00:09;2.92;;;1.65;;
51943;SDS011;37969;53.132;6.370;2023-07-28T12:02:37;4.10;;;2.40;;
51943;SDS011;37969;53.132;6.370;2023-07-28T12:05:11;1.50;;;1.40;;
51943;SDS011;37969;53.132;6.370;2023-07-28T12:07:37;2.42;;;1.80;;
51943;SDS011;37969;53.132;6.370;2023-07-28T12:10:04;3.63;;;1.63;;
51943;SDS011;37969;53.132;6.370;2023-07-28T12:12:40;1.75;;;1.40;;
51943;SDS011;37969;53.132;6.370;2023-07-28T12:15:25;2.88;;;2.05;;
51943;SDS011;37969;53.132;6.370;2023-07-28T12:18:06;5.78;;;1.90;;
51943;SDS011;37969;53.132;6.370;2023-07-28T12:20:37;1.75;;;1.63;;
51943;SDS011;37969;53.132;6.370;2023-07-28T12:23:04;1.88;;;1.77;;
51943;SDS011;37969;53.132;6.370;2023-07-28T12:25:30;2.30;;;1.88;;
51943;SDS011;37969;53.132;6.370;2023-07-28T12:27:57;4.22;;;1.90;;
51943;SDS011;37969;53.132;6.370;2023-07-28T12:30:23;3.67;;;1.67;;
51943;SDS011;37969;53.132;6.370;2023-07-28T12:32:50;1.60;;;1.50;;
51943;SDS011;37969;53.132;6.370;2023-07-28T12:35:17;1.83;;;1.52;;
51943;SDS011;37969;53.132;6.370;2023-07-28T12:37:43;2.63;;;1.45;;
51943;SDS011;37969;53.132;6.370;2023-07-28T12:40:10;3.00;;;1.60;;
51943;SDS011;37969;53.132;6.370;2023-07-28T12:42:36;2.22;;;1.85;;
51943;SDS011;37969;53.132;6.370;2023-07-28T12:45:03;4.20;;;1.80;;
51943;SDS011;37969;53.132;6.370;2023-07-28T12:47:31;3.00;;;2.72;;
51943;SDS011;37969;53.132;6.370;2023-07-28T12:49:57;3.45;;;2.10;;
51943;SDS011;37969;53.132;6.370;2023-07-28T12:52:24;2.22;;;2.00;;
51943;SDS011;37969;53.132;6.370;2023-07-28T12:54:50;2.53;;;2.33;;
51943;SDS011;37969;53.132;6.370;2023-07-28T12:57:17;2.10;;;1.90;;
51943;SDS011;37969;53.132;6.370;2023-07-28T12:59:43;6.15;;;2.00;;
51943;SDS011;37969;53.132;6.370;2023-07-28T13:02:09;2.17;;;1.70;;
51943;SDS011;37969;53.132;6.370;2023-07-28T13:04:36;3.00;;;1.80;;
51943;SDS011;37969;53.132;6.370;2023-07-28T13:07:02;4.25;;;1.52;;
51943;SDS011;37969;53.132;6.370;2023-07-28T13:09:28;2.42;;;1.92;;
51943;SDS011;37969;53.132;6.370;2023-07-28T13:11:55;2.17;;;1.75;;
51943;SDS011;37969;53.132;6.370;2023-07-28T13:14:21;4.93;;;1.90;;
51943;SDS011;37969;53.132;6.370;2023-07-28T13:16:47;2.95;;;2.10;;
51943;SDS011;37969;53.132;6.370;2023-07-28T13:19:13;1.75;;;1.65;;
51943;SDS011;37969;53.132;6.370;2023-07-28T13:21:39;2.47;;;2.20;;
51943;SDS011;37969;53.132;6.370;2023-07-28T13:24:06;3.97;;;2.00;;
51943;SDS011;37969;53.132;6.370;2023-07-28T13:26:32;2.95;;;2.00;;
51943;SDS011;37969;53.132;6.370;2023-07-28T13:28:58;4.38;;;2.17;;
51943;SDS011;37969;53.132;6.370;2023-07-28T13:31:27;4.60;;;2.50;;
51943;SDS011;37969;53.132;6.370;2023-07-28T13:33:53;6.80;;;2.67;;
51943;SDS011;37969;53.132;6.370;2023-07-28T13:36:19;4.65;;;2.40;;
51943;SDS011;37969;53.132;6.370;2023-07-28T13:38:45;3.53;;;2.33;;
51943;SDS011;37969;53.132;6.370;2023-07-28T13:41:12;3.63;;;2.97;;
51943;SDS011;37969;53.132;6.370;2023-07-28T13:43:38;3.40;;;3.10;;
51943;SDS011;37969;53.132;6.370;2023-07-28T13:46:06;7.28;;;3.60;;
51943;SDS011;37969;53.132;6.370;2023-07-28T13:48:32;6.28;;;3.92;;
51943;SDS011;37969;53.132;6.370;2023-07-28T13:50:58;4.28;;;3.80;;
51943;SDS011;37969;53.132;6.370;2023-07-28T13:53:25;5.80;;;4.10;;
51943;SDS011;37969;53.132;6.370;2023-07-28T13:55:51;7.13;;;3.53;;
51943;SDS011;37969;53.132;6.370;2023-07-28T13:58:17;5.15;;;4.03;;
51943;SDS011;37969;53.132;6.370;2023-07-28T14:00:43;4.28;;;3.30;;
51943;SDS011;37969;53.132;6.370;2023-07-28T14:03:10;4.05;;;3.50;;
51943;SDS011;37969;53.132;6.370;2023-07-28T14:05:36;3.65;;;3.35;;
51943;SDS011;37969;53.132;6.370;2023-07-28T14:08:02;4.60;;;4.10;;
51943;SDS011;37969;53.132;6.370;2023-07-28T14:10:28;6.80;;;4.43;;
51943;SDS011;37969;53.132;6.370;2023-07-28T14:12:57;9.23;;;5.10;;
51943;SDS011;37969;53.132;6.370;2023-07-28T14:15:23;8.02;;;4.95;;
51943;SDS011;37969;53.132;6.370;2023-07-28T14:17:49;8.63;;;5.93;;
51943;SDS011;37969;53.132;6.370;2023-07-28T14:20:15;11.30;;;5.32;;
51943;SDS011;37969;53.132;6.370;2023-07-28T14:22:42;8.05;;;4.90;;
51943;SDS011;37969;53.132;6.370;2023-07-28T14:25:08;4.75;;;4.28;;
51943;SDS011;37969;53.132;6.370;2023-07-28T14:27:34;6.60;;;4.30;;
51943;SDS011;37969;53.132;6.370;2023-07-28T14:30:01;8.52;;;4.57;;
51943;SDS011;37969;53.132;6.370;2023-07-28T14:32:27;8.15;;;4.85;;
51943;SDS011;37969;53.132;6.370;2023-07-28T14:34:53;6.93;;;4.45;;
51943;SDS011;37969;53.132;6.370;2023-07-28T14:37:20;5.00;;;4.18;;
51943;SDS011;37969;53.132;6.370;2023-07-28T14:39:47;8.00;;;4.22;;
51943;SDS011;37969;53.132;6.370;2023-07-28T14:42:13;4.65;;;3.40;;